Time,TemperatureF,DewpointF,PressureIn,WindDirection,WindDirectionDegrees,WindSpeedMPH,WindSpeedGustMPH,Humidity,HourlyPrecipIn,Conditions,Clouds,dailyrainin,SoftwareType,DateUTC
2013-07-09 00:05:00,70.0,67.3,29.99,SE,135,0.0,9.0,91,0.00,,,0.00,Wunderground v.1.15,2013-07-09 04:05:00,
2013-07-09 00:10:00,69.9,67.5,29.99,SE,135,0.0,9.0,92,0.00,,,0.00,Wunderground v.1.15,2013-07-09 04:10:00,
2013-07-09 00:15:00,69.8,67.4,29.99,SE,135,0.0,9.0,92,0.00,,,0.00,Wunderground v.1.15,2013-07-09 04:15:00,
2013-07-09 00:20:00,69.8,67.4,29.99,SE,135,0.0,9.0,92,0.00,,,0.00,Wunderground v.1.15,2013-07-09 04:20:00,
2013-07-09 00:25:00,69.7,67.3,29.99,SE,135,0.0,9.0,92,0.00,,,0.00,Wunderground v.1.15,2013-07-09 04:25:00,
2013-07-09 00:30:00,69.6,67.2,29.99,SE,135,0.0,9.0,92,0.00,,,0.00,Wunderground v.1.15,2013-07-09 04:30:00,
2013-07-09 00:35:00,69.5,67.1,29.99,SE,135,0.0,9.0,92,0.00,,,0.00,Wunderground v.1.15,2013-07-09 04:35:00,
2013-07-09 00:40:00,69.4,67.0,29.99,SE,135,0.0,9.0,92,0.00,,,0.00,Wunderground v.1.15,2013-07-09 04:40:00,
2013-07-09 00:45:00,69.5,67.1,29.99,SSW,194,0.0,9.0,92,0.00,,,0.00,Wunderground v.1.15,2013-07-09 04:45:00,
2013-07-09 00:55:00,69.3,66.9,29.98,SSW,205,0.0,9.0,92,0.00,,,0.00,Wunderground v.1.15,2013-07-09 04:55:00,
2013-07-09 01:00:00,69.2,66.8,29.98,SW,219,0.0,9.0,92,0.00,,,0.00,Wunderground v.1.15,2013-07-09 05:00:00,
2013-07-09 01:05:00,69.2,66.8,29.98,WSW,252,1.0,9.0,92,0.00,,,0.00,Wunderground v.1.15,2013-07-09 05:05:00,
2013-07-09 01:10:00,69.2,66.8,29.98,WSW,252,1.0,9.0,92,0.00,,,0.00,Wunderground v.1.15,2013-07-09 05:10:00,
2013-07-09 01:15:00,69.2,66.8,29.98,SW,236,2.0,9.0,92,0.00,,,0.00,Wunderground v.1.15,2013-07-09 05:15:00,
2013-07-09 01:20:00,69.3,66.9,29.98,WSW,246,3.0,9.0,92,0.00,,,0.00,Wunderground v.1.15,2013-07-09 05:20:00,
2013-07-09 01:25:00,69.4,66.7,29.98,WSW,245,3.0,9.0,91,0.00,,,0.00,Wunderground v.1.15,2013-07-09 05:25:00,
2013-07-09 01:35:00,69.7,66.6,29.98,SW,232,3.0,9.0,90,0.00,,,0.00,Wunderground v.1.15,2013-07-09 05:35:00,
2013-07-09 01:40:00,70.0,66.9,29.98,SW,232,3.0,3.0,90,0.00,,,0.00,Wunderground v.1.15,2013-07-09 05:40:00,
2013-07-09 01:45:00,70.1,67.0,29.98,WSW,238,2.0,5.0,90,0.00,,,0.00,Wunderground v.1.15,2013-07-09 05:45:00,
2013-07-09 01:50:00,70.2,66.8,29.98,SW,219,2.0,9.0,89,0.00,,,0.00,Wunderground v.1.15,2013-07-09 05:50:00,
2013-07-09 01:55:00,70.5,67.1,29.98,SW,223,3.0,9.0,89,0.00,,,0.00,Wunderground v.1.15,2013-07-09 05:55:00,
2013-07-09 02:00:00,70.6,67.2,29.98,WSW,243,2.0,9.0,89,0.00,,,0.00,Wunderground v.1.15,2013-07-09 06:00:00,
2013-07-09 02:10:00,70.7,67.0,29.98,WSW,242,2.0,2.0,88,0.00,,,0.00,Wunderground v.1.15,2013-07-09 06:10:00,
2013-07-09 02:15:00,70.7,67.0,29.98,WSW,242,1.0,9.0,88,0.00,,,0.00,Wunderground v.1.15,2013-07-09 06:15:00,
2013-07-09 02:20:00,70.8,67.1,29.98,WSW,242,1.0,9.0,88,0.00,,,0.00,Wunderground v.1.15,2013-07-09 06:20:00,
2013-07-09 02:25:00,70.8,67.1,29.98,SW,232,1.0,9.0,88,0.00,,,0.00,Wunderground v.1.15,2013-07-09 06:25:00,
2013-07-09 02:30:00,70.9,67.2,29.98,SW,229,1.0,9.0,88,0.00,,,0.00,Wunderground v.1.15,2013-07-09 06:30:00,
2013-07-09 02:35:00,71.0,67.3,29.97,SW,223,1.0,9.0,88,0.00,,,0.00,Wunderground v.1.15,2013-07-09 06:35:00,
2013-07-09 02:40:00,71.2,67.5,29.97,SW,215,2.0,2.0,88,0.00,,,0.00,Wunderground v.1.15,2013-07-09 06:40:00,
2013-07-09 02:50:00,71.6,67.5,29.97,SSW,205,2.0,9.0,87,0.00,,,0.00,Wunderground v.1.15,2013-07-09 06:50:00,
2013-07-09 02:55:00,71.6,67.5,29.97,SSW,205,2.0,9.0,87,0.00,,,0.00,Wunderground v.1.15,2013-07-09 06:55:00,
2013-07-09 03:00:00,71.6,67.5,29.97,SSW,205,0.0,9.0,87,0.00,,,0.00,Wunderground v.1.15,2013-07-09 07:00:00,
2013-07-09 03:05:00,71.5,67.4,29.97,SSW,205,0.0,9.0,87,0.00,,,0.00,Wunderground v.1.15,2013-07-09 07:05:00,
2013-07-09 03:10:00,71.5,67.4,29.97,SSW,205,0.0,9.0,87,0.00,,,0.00,Wunderground v.1.15,2013-07-09 07:10:00,
2013-07-09 03:15:00,71.4,67.3,29.97,SSW,205,0.0,9.0,87,0.00,,,0.00,Wunderground v.1.15,2013-07-09 07:15:00,
2013-07-09 03:20:00,71.4,68.0,29.97,SSW,205,0.0,9.0,89,0.00,,,0.00,Wunderground v.1.15,2013-07-09 07:20:00,
2013-07-09 03:30:00,70.4,67.3,29.97,WSW,248,1.0,1.0,90,0.00,,,0.00,Wunderground v.1.15,2013-07-09 07:30:00,
2013-07-09 03:40:00,69.7,67.3,29.97,WSW,248,0.0,9.0,92,0.00,,,0.00,Wunderground v.1.15,2013-07-09 07:40:00,
2013-07-09 03:45:00,69.7,67.3,29.97,WSW,248,0.0,9.0,92,0.00,,,0.00,Wunderground v.1.15,2013-07-09 07:45:00,
2013-07-09 03:55:00,69.9,67.5,29.97,WSW,248,0.0,9.0,92,0.00,,,0.00,Wunderground v.1.15,2013-07-09 07:55:00,
2013-07-09 04:05:00,69.7,67.3,29.97,WSW,248,0.0,9.0,92,0.00,,,0.00,Wunderground v.1.15,2013-07-09 08:05:00,
2013-07-09 04:10:00,69.8,67.7,29.97,WSW,248,0.0,9.0,93,0.00,,,0.00,Wunderground v.1.15,2013-07-09 08:10:00,
2013-07-09 04:15:00,69.9,67.8,29.96,WSW,248,0.0,9.0,93,0.00,,,0.00,Wunderground v.1.15,2013-07-09 08:15:00,
2013-07-09 04:20:00,69.8,67.7,29.96,WSW,248,0.0,9.0,93,0.00,,,0.00,Wunderground v.1.15,2013-07-09 08:20:00,
2013-07-09 04:25:00,69.7,67.9,29.96,WSW,248,0.0,9.0,94,0.00,,,0.00,Wunderground v.1.15,2013-07-09 08:25:00,
2013-07-09 04:30:00,69.3,67.5,29.97,WSW,248,0.0,9.0,94,0.00,,,0.00,Wunderground v.1.15,2013-07-09 08:30:00,
2013-07-09 04:35:00,69.0,67.5,29.97,WSW,248,0.0,9.0,95,0.00,,,0.00,Wunderground v.1.15,2013-07-09 08:35:00,
2013-07-09 04:45:00,68.6,67.1,29.97,WSW,248,1.0,9.0,95,0.00,,,0.00,Wunderground v.1.15,2013-07-09 08:45:00,
2013-07-09 04:50:00,68.6,67.4,29.97,WSW,248,1.0,1.0,96,0.00,,,0.00,Wunderground v.1.15,2013-07-09 08:50:00,
2013-07-09 04:55:00,68.5,67.3,29.97,WSW,248,1.0,9.0,96,0.00,,,0.00,Wunderground v.1.15,2013-07-09 08:55:00,
2013-07-09 05:00:00,68.5,67.3,29.97,WSW,248,0.0,9.0,96,0.00,,,0.00,Wunderground v.1.15,2013-07-09 09:00:00,
2013-07-09 05:05:00,68.6,67.4,29.97,WSW,248,0.0,9.0,96,0.00,,,0.00,Wunderground v.1.15,2013-07-09 09:05:00,
2013-07-09 05:10:00,68.6,67.4,29.97,WSW,248,0.0,9.0,96,0.00,,,0.00,Wunderground v.1.15,2013-07-09 09:10:00,
2013-07-09 05:20:00,68.4,67.2,29.97,WSW,248,0.0,9.0,96,0.00,,,0.00,Wunderground v.1.15,2013-07-09 09:20:00,
2013-07-09 05:25:00,68.3,67.4,29.97,WSW,248,0.0,9.0,97,0.00,,,0.00,Wunderground v.1.15,2013-07-09 09:25:00,
2013-07-09 05:30:00,68.3,67.4,29.97,WSW,248,0.0,9.0,97,0.00,,,0.00,Wunderground v.1.15,2013-07-09 09:30:00,
2013-07-09 05:35:00,68.3,67.4,29.98,WSW,248,0.0,9.0,97,0.00,,,0.00,Wunderground v.1.15,2013-07-09 09:35:00,
2013-07-09 05:40:00,68.3,67.4,29.98,SE,126,0.0,9.0,97,0.00,,,0.00,Wunderground v.1.15,2013-07-09 09:40:00,
2013-07-09 05:45:00,68.3,67.4,29.98,SE,126,0.0,9.0,97,0.00,,,0.00,Wunderground v.1.15,2013-07-09 09:45:00,
2013-07-09 05:50:00,68.3,67.4,29.98,North,350,0.0,9.0,97,0.00,,,0.00,Wunderground v.1.15,2013-07-09 09:50:00,
2013-07-09 06:00:00,68.3,67.4,29.98,North,350,0.0,9.0,97,0.00,,,0.00,Wunderground v.1.15,2013-07-09 10:00:00,
2013-07-09 06:05:00,68.3,67.4,29.98,North,350,0.0,9.0,97,0.00,,,0.00,Wunderground v.1.15,2013-07-09 10:05:00,
2013-07-09 06:10:00,68.3,67.7,29.97,North,350,0.0,9.0,98,0.00,,,0.00,Wunderground v.1.15,2013-07-09 10:10:00,
2013-07-09 06:15:00,68.3,67.7,29.97,North,350,0.0,9.0,98,0.00,,,0.00,Wunderground v.1.15,2013-07-09 10:15:00,
2013-07-09 06:20:00,68.4,67.8,29.97,North,350,0.0,9.0,98,0.00,,,0.00,Wunderground v.1.15,2013-07-09 10:20:00,
2013-07-09 06:25:00,68.5,67.9,29.97,North,350,0.0,9.0,98,0.00,,,0.00,Wunderground v.1.15,2013-07-09 10:25:00,
2013-07-09 06:35:00,68.4,67.8,29.98,North,350,0.0,9.0,98,0.00,,,0.00,Wunderground v.1.15,2013-07-09 10:35:00,
2013-07-09 06:45:00,68.4,67.8,29.98,West,274,0.0,9.0,98,0.00,,,0.00,Wunderground v.1.15,2013-07-09 10:45:00,
2013-07-09 06:50:00,68.4,67.8,29.98,West,274,0.0,9.0,98,0.00,,,0.00,Wunderground v.1.15,2013-07-09 10:50:00,
2013-07-09 06:55:00,68.4,67.8,29.98,West,274,0.0,9.0,98,0.00,,,0.00,Wunderground v.1.15,2013-07-09 10:55:00,
2013-07-09 07:00:00,68.4,67.8,29.97,West,274,0.0,9.0,98,0.00,,,0.00,Wunderground v.1.15,2013-07-09 11:00:00,
2013-07-09 07:05:00,68.5,67.9,29.97,West,275,0.0,9.0,98,0.00,,,0.00,Wunderground v.1.15,2013-07-09 11:05:00,
2013-07-09 07:10:00,68.5,67.9,29.97,West,273,0.0,9.0,98,0.00,,,0.00,Wunderground v.1.15,2013-07-09 11:10:00,
2013-07-09 07:20:00,68.7,68.1,29.97,West,273,0.0,9.0,98,0.00,,,0.00,Wunderground v.1.15,2013-07-09 11:20:00,
2013-07-09 07:25:00,68.8,68.2,29.98,West,273,0.0,9.0,98,0.00,,,0.00,Wunderground v.1.15,2013-07-09 11:25:00,
2013-07-09 07:30:00,68.9,68.3,29.98,West,273,0.0,9.0,98,0.00,,,0.00,Wunderground v.1.15,2013-07-09 11:30:00,
2013-07-09 07:35:00,68.9,68.3,29.98,West,273,0.0,9.0,98,0.00,,,0.00,Wunderground v.1.15,2013-07-09 11:35:00,
2013-07-09 07:40:00,69.0,68.4,29.97,West,273,0.0,9.0,98,0.00,,,0.00,Wunderground v.1.15,2013-07-09 11:40:00,
2013-07-09 07:45:00,69.1,68.5,29.98,West,273,0.0,9.0,98,0.00,,,0.00,Wunderground v.1.15,2013-07-09 11:45:00,
2013-07-09 07:50:00,69.4,68.8,29.98,West,275,0.0,9.0,98,0.00,,,0.00,Wunderground v.1.15,2013-07-09 11:50:00,
2013-07-09 08:00:00,69.9,69.3,29.98,West,275,0.0,9.0,98,0.00,,,0.00,Wunderground v.1.15,2013-07-09 12:00:00,
2013-07-09 08:05:00,70.0,68.8,29.98,SW,222,0.0,9.0,96,0.00,,,0.00,Wunderground v.1.15,2013-07-09 12:05:00,
2013-07-09 08:10:00,70.4,69.2,29.98,SW,222,1.0,1.0,96,0.00,,,0.00,Wunderground v.1.15,2013-07-09 12:10:00,
2013-07-09 08:15:00,70.9,69.7,29.98,SW,222,0.0,9.0,96,0.00,,,0.00,Wunderground v.1.15,2013-07-09 12:15:00,
2013-07-09 08:25:00,71.5,70.3,29.98,SW,222,0.0,9.0,96,0.00,,,0.00,Wunderground v.1.15,2013-07-09 12:25:00,
2013-07-09 08:30:00,71.6,70.1,29.98,SW,222,0.0,9.0,95,0.00,,,0.00,Wunderground v.1.15,2013-07-09 12:30:00,
2013-07-09 08:40:00,71.9,70.4,29.98,SW,222,0.0,9.0,95,0.00,,,0.00,Wunderground v.1.15,2013-07-09 12:40:00,
2013-07-09 08:45:00,72.0,70.2,29.98,SW,222,0.0,9.0,94,0.00,,,0.00,Wunderground v.1.15,2013-07-09 12:45:00,
2013-07-09 08:50:00,72.2,70.4,29.98,SW,222,0.0,9.0,94,0.00,,,0.00,Wunderground v.1.15,2013-07-09 12:50:00,
2013-07-09 09:00:00,72.5,70.4,29.98,SW,222,0.0,9.0,93,0.00,,,0.00,Wunderground v.1.15,2013-07-09 13:00:00,
2013-07-09 09:05:00,72.7,70.6,29.98,SW,222,0.0,9.0,93,0.00,,,0.00,Wunderground v.1.15,2013-07-09 13:05:00,
2013-07-09 09:15:00,73.1,70.3,29.98,SE,137,0.0,9.0,91,0.00,,,0.00,Wunderground v.1.15,2013-07-09 13:15:00,
2013-07-09 09:20:00,73.4,70.3,29.98,SE,136,0.0,9.0,90,0.00,,,0.00,Wunderground v.1.15,2013-07-09 13:20:00,
2013-07-09 09:25:00,73.7,70.3,29.98,East,93,1.0,9.0,89,0.00,,,0.00,Wunderground v.1.15,2013-07-09 13:25:00,
2013-07-09 09:30:00,74.0,70.6,29.98,East,93,1.0,1.0,89,0.00,,,0.00,Wunderground v.1.15,2013-07-09 13:30:00,
2013-07-09 09:35:00,74.3,70.2,29.98,East,93,0.0,9.0,87,0.00,,,0.00,Wunderground v.1.15,2013-07-09 13:35:00,
2013-07-09 09:40:00,74.6,69.8,29.98,SW,227,0.0,9.0,85,0.00,,,0.00,Wunderground v.1.15,2013-07-09 13:40:00,
2013-07-09 09:50:00,74.7,69.5,29.98,SW,226,1.0,1.0,84,0.00,,,0.00,Wunderground v.1.15,2013-07-09 13:50:00,
2013-07-09 09:55:00,74.9,69.7,29.98,SW,219,1.0,9.0,84,0.00,,,0.00,Wunderground v.1.15,2013-07-09 13:55:00,
2013-07-09 10:00:00,74.8,69.3,29.98,SSW,207,2.0,9.0,83,0.00,,,0.00,Wunderground v.1.15,2013-07-09 14:00:00,
2013-07-09 10:05:00,74.8,69.6,29.98,West,265,3.0,9.0,84,0.00,,,0.00,Wunderground v.1.15,2013-07-09 14:05:00,
2013-07-09 10:10:00,75.3,69.8,29.97,WSW,238,3.0,3.0,83,0.00,,,0.00,Wunderground v.1.15,2013-07-09 14:10:00,
2013-07-09 10:15:00,75.7,69.5,29.98,West,261,2.0,9.0,81,0.00,,,0.00,Wunderground v.1.15,2013-07-09 14:15:00,
2013-07-09 10:25:00,76.4,69.0,29.98,WSW,247,3.0,9.0,78,0.00,,,0.00,Wunderground v.1.15,2013-07-09 14:25:00,
2013-07-09 10:30:00,76.0,69.4,29.98,SSW,206,4.0,9.0,80,0.00,,,0.00,Wunderground v.1.15,2013-07-09 14:30:00,
2013-07-09 10:35:00,75.6,69.0,29.98,WSW,249,5.0,9.0,80,0.00,,,0.00,Wunderground v.1.15,2013-07-09 14:35:00,
2013-07-09 10:45:00,75.4,68.4,29.97,SW,222,6.0,9.0,79,0.00,,,0.00,Wunderground v.1.15,2013-07-09 14:45:00,
2013-07-09 10:50:00,75.2,68.2,29.97,West,267,6.0,6.0,79,0.00,,,0.00,Wunderground v.1.15,2013-07-09 14:50:00,
2013-07-09 11:00:00,75.3,68.7,29.97,WSW,254,4.0,9.0,80,0.00,,,0.00,Wunderground v.1.15,2013-07-09 15:00:00,
2013-07-09 11:05:00,75.3,69.1,29.97,SSW,205,5.0,9.0,81,0.00,,,0.00,Wunderground v.1.15,2013-07-09 15:05:00,
2013-07-09 11:10:00,75.2,69.3,29.97,WSW,242,4.0,9.0,82,0.00,,,0.00,Wunderground v.1.15,2013-07-09 15:10:00,
2013-07-09 11:15:00,75.0,69.1,29.98,SSW,210,4.0,9.0,82,0.00,,,0.00,Wunderground v.1.15,2013-07-09 15:15:00,
2013-07-09 11:20:00,74.5,69.0,29.98,SW,228,5.0,9.0,83,0.00,,,0.00,Wunderground v.1.15,2013-07-09 15:20:00,
2013-07-09 11:25:00,73.8,69.0,29.98,SSW,209,6.0,9.0,85,0.00,,,0.00,Wunderground v.1.15,2013-07-09 15:25:00,
2013-07-09 11:30:00,73.3,68.9,29.97,West,259,6.0,6.0,86,0.00,,,0.00,Wunderground v.1.15,2013-07-09 15:30:00,
2013-07-09 14:30:00,76.3,72.1,29.93,WNW,284,2.0,9.0,87,0.00,,,0.02,Wunderground v.1.15,2013-07-09 18:30:00,
2013-07-09 14:35:00,75.7,72.6,29.93,WNW,284,2.0,9.0,90,0.00,,,0.02,Wunderground v.1.15,2013-07-09 18:35:00,
2013-07-09 14:40:00,75.4,71.9,29.93,WNW,284,1.0,9.0,89,0.00,,,0.02,Wunderground v.1.15,2013-07-09 18:40:00,
2013-07-09 14:45:00,75.2,72.1,29.93,WNW,284,1.0,9.0,90,0.00,,,0.02,Wunderground v.1.15,2013-07-09 18:45:00,
2013-07-09 14:50:00,75.2,72.4,29.93,WNW,284,0.0,9.0,91,0.00,,,0.03,Wunderground v.1.15,2013-07-09 18:50:00,
2013-07-09 15:00:00,75.6,73.4,29.93,WNW,284,0.0,9.0,93,0.00,,,0.03,Wunderground v.1.15,2013-07-09 19:00:00,
2013-07-09 15:05:00,75.5,72.4,29.92,WNW,284,0.0,9.0,90,0.00,,,0.03,Wunderground v.1.15,2013-07-09 19:05:00,
2013-07-09 15:10:00,75.5,72.4,29.92,WNW,284,0.0,9.0,90,0.00,,,0.03,Wunderground v.1.15,2013-07-09 19:10:00,
2013-07-09 15:15:00,75.3,72.5,29.92,WNW,284,0.0,9.0,91,0.00,,,0.03,Wunderground v.1.15,2013-07-09 19:15:00,
2013-07-09 15:20:00,75.1,72.9,29.92,WNW,284,0.0,9.0,93,0.00,,,0.03,Wunderground v.1.15,2013-07-09 19:20:00,
2013-07-09 15:25:00,75.3,73.5,29.92,WNW,284,0.0,9.0,94,0.00,,,0.03,Wunderground v.1.15,2013-07-09 19:25:00,
2013-07-09 15:35:00,77.1,75.6,29.92,WNW,284,0.0,9.0,95,0.00,,,0.03,Wunderground v.1.15,2013-07-09 19:35:00,
2013-07-09 15:40:00,77.7,75.2,29.91,WNW,284,0.0,9.0,92,0.00,,,0.03,Wunderground v.1.15,2013-07-09 19:40:00,
2013-07-09 15:45:00,77.9,74.7,29.91,WNW,284,0.0,9.0,90,0.00,,,0.03,Wunderground v.1.15,2013-07-09 19:45:00,
2013-07-09 15:50:00,77.9,74.4,29.91,WNW,284,0.0,9.0,89,0.00,,,0.03,Wunderground v.1.15,2013-07-09 19:50:00,
2013-07-09 15:55:00,77.5,74.0,29.91,WNW,284,1.0,9.0,89,0.00,,,0.03,Wunderground v.1.15,2013-07-09 19:55:00,
2013-07-09 16:05:00,77.3,74.8,29.90,WNW,284,1.0,9.0,92,0.00,,,0.03,Wunderground v.1.15,2013-07-09 20:05:00,
2013-07-09 16:10:00,77.4,72.5,29.90,WSW,240,0.0,9.0,85,0.00,,,0.03,Wunderground v.1.15,2013-07-09 20:10:00,
2013-07-09 16:15:00,77.5,72.3,29.90,SW,219,2.0,9.0,84,0.00,,,0.03,Wunderground v.1.15,2013-07-09 20:15:00,
2013-07-09 16:20:00,77.5,71.9,29.90,SSW,205,4.0,9.0,83,0.00,,,0.03,Wunderground v.1.15,2013-07-09 20:20:00,
2013-07-09 16:25:00,77.4,71.8,29.90,SW,233,4.0,9.0,83,0.00,,,0.03,Wunderground v.1.15,2013-07-09 20:25:00,
2013-07-09 16:30:00,77.5,71.6,29.90,SW,236,5.0,5.0,82,0.00,,,0.03,Wunderground v.1.15,2013-07-09 20:30:00,
2013-07-09 16:35:00,78.1,71.8,29.90,WSW,244,5.0,6.0,81,0.00,,,0.03,Wunderground v.1.15,2013-07-09 20:35:00,
2013-07-09 16:40:00,78.0,71.7,29.90,SSW,202,5.0,5.0,81,0.00,,,0.03,Wunderground v.1.15,2013-07-09 20:40:00,
2013-07-09 16:50:00,78.0,72.1,29.89,SW,227,5.0,9.0,82,0.00,,,0.03,Wunderground v.1.15,2013-07-09 20:50:00,
2013-07-09 16:55:00,78.2,72.3,29.89,SW,215,5.0,9.0,82,0.00,,,0.03,Wunderground v.1.15,2013-07-09 20:55:00,
2013-07-09 17:00:00,78.1,71.8,29.89,WSW,247,5.0,5.0,81,0.00,,,0.03,Wunderground v.1.15,2013-07-09 21:00:00,
2013-07-09 17:10:00,77.8,71.5,29.89,SW,227,5.0,5.0,81,0.00,,,0.03,Wunderground v.1.15,2013-07-09 21:10:00,
2013-07-09 17:20:00,77.5,71.6,29.89,SW,234,4.0,4.0,82,0.00,,,0.03,Wunderground v.1.15,2013-07-09 21:20:00,
2013-07-09 17:25:00,77.9,70.9,29.89,SW,228,4.0,7.0,79,0.00,,,0.03,Wunderground v.1.15,2013-07-09 21:25:00,
2013-07-09 17:30:00,78.2,71.5,29.89,SW,223,5.0,5.0,80,0.00,,,0.03,Wunderground v.1.15,2013-07-09 21:30:00,
2013-07-09 17:35:00,78.4,71.0,29.88,SSW,204,7.0,7.0,78,0.00,,,0.03,Wunderground v.1.15,2013-07-09 21:35:00,
2013-07-09 17:40:00,78.5,71.1,29.88,SW,235,5.0,9.0,78,0.00,,,0.03,Wunderground v.1.15,2013-07-09 21:40:00,
2013-07-09 17:45:00,78.3,71.2,29.88,SW,231,4.0,9.0,79,0.00,,,0.03,Wunderground v.1.15,2013-07-09 21:45:00,
2013-07-09 17:50:00,78.0,71.7,29.88,SW,220,3.0,9.0,81,0.00,,,0.03,Wunderground v.1.15,2013-07-09 21:50:00,
2013-07-09 17:55:00,77.7,71.0,29.88,WSW,247,3.0,9.0,80,0.00,,,0.03,Wunderground v.1.15,2013-07-09 21:55:00,
2013-07-09 18:05:00,77.5,71.2,29.87,SW,223,3.0,9.0,81,0.00,,,0.03,Wunderground v.1.15,2013-07-09 22:05:00,
2013-07-09 18:10:00,77.7,71.4,29.87,SW,228,4.0,9.0,81,0.00,,,0.03,Wunderground v.1.15,2013-07-09 22:10:00,
2013-07-09 18:15:00,78.2,71.5,29.87,WSW,239,3.0,9.0,80,0.00,,,0.03,Wunderground v.1.15,2013-07-09 22:15:00,
2013-07-09 18:20:00,78.4,71.7,29.87,SW,221,2.0,9.0,80,0.00,,,0.03,Wunderground v.1.15,2013-07-09 22:20:00,
2013-07-09 18:25:00,78.5,71.4,29.87,WSW,250,2.0,9.0,79,0.00,,,0.03,Wunderground v.1.15,2013-07-09 22:25:00,
2013-07-09 18:30:00,78.9,71.8,29.87,SSW,207,1.0,9.0,79,0.00,,,0.03,Wunderground v.1.15,2013-07-09 22:30:00,
2013-07-09 18:40:00,78.6,71.2,29.87,SW,229,1.0,1.0,78,0.00,,,0.03,Wunderground v.1.15,2013-07-09 22:40:00,
2013-07-09 18:45:00,78.8,71.7,29.87,SW,230,0.0,9.0,79,0.00,,,0.03,Wunderground v.1.15,2013-07-09 22:45:00,
2013-07-09 18:50:00,78.9,71.5,29.87,WSW,243,1.0,1.0,78,0.00,,,0.03,Wunderground v.1.15,2013-07-09 22:50:00,
2013-07-09 18:55:00,78.8,71.7,29.87,West,266,1.0,9.0,79,0.00,,,0.03,Wunderground v.1.15,2013-07-09 22:55:00,
2013-07-09 19:05:00,78.6,71.9,29.87,West,266,1.0,9.0,80,0.00,,,0.03,Wunderground v.1.15,2013-07-09 23:05:00,
2013-07-09 19:10:00,78.5,71.4,29.87,West,266,0.0,9.0,79,0.00,,,0.03,Wunderground v.1.15,2013-07-09 23:10:00,
2013-07-09 19:20:00,78.4,71.7,29.87,West,266,0.0,9.0,80,0.00,,,0.03,Wunderground v.1.15,2013-07-09 23:20:00,
2013-07-09 19:25:00,78.5,71.8,29.86,West,266,0.0,9.0,80,0.00,,,0.03,Wunderground v.1.15,2013-07-09 23:25:00,
2013-07-09 19:30:00,78.5,71.8,29.86,West,266,0.0,9.0,80,0.00,,,0.03,Wunderground v.1.15,2013-07-09 23:30:00,
2013-07-09 19:35:00,78.2,71.9,29.86,West,266,0.0,9.0,81,0.00,,,0.03,Wunderground v.1.15,2013-07-09 23:35:00,
2013-07-09 19:40:00,77.8,71.9,29.86,West,266,1.0,1.0,82,0.00,,,0.03,Wunderground v.1.15,2013-07-09 23:40:00,
2013-07-09 19:45:00,77.5,71.6,29.86,West,266,1.0,9.0,82,0.00,,,0.03,Wunderground v.1.15,2013-07-09 23:45:00,
2013-07-09 19:55:00,77.2,71.6,29.86,West,263,0.0,9.0,83,0.00,,,0.03,Wunderground v.1.15,2013-07-09 23:55:00,
2013-07-09 20:00:00,77.0,71.8,29.87,WSW,241,0.0,9.0,84,0.00,,,0.03,Wunderground v.1.15,2013-07-10 00:00:00,
2013-07-09 20:05:00,76.9,71.7,29.87,WSW,241,0.0,9.0,84,0.00,,,0.03,Wunderground v.1.15,2013-07-10 00:05:00,
2013-07-09 20:10:00,76.8,71.6,29.87,WSW,241,0.0,9.0,84,0.00,,,0.03,Wunderground v.1.15,2013-07-10 00:10:00,